createdAt,value
2022-08-31T00:03:53.405Z,14.77
2022-08-31T00:08:59.329Z,14.60
2022-08-31T00:14:07.143Z,14.66
2022-08-31T00:19:17.817Z,14.68
2022-08-31T00:24:22.122Z,14.51
2022-08-31T00:29:27.013Z,14.34
2022-08-31T00:34:32.995Z,14.31
2022-08-31T00:39:37.487Z,14.45
2022-08-31T00:44:42.691Z,14.20
2022-08-31T00:49:51.877Z,14.05
2022-08-31T00:54:59.717Z,14.03
2022-08-31T01:00:09.084Z,13.98
2022-08-31T01:05:16.555Z,13.95
2022-08-31T01:10:25.736Z,14.05
2022-08-31T01:15:32.325Z,14.10
2022-08-31T01:20:49.267Z,14.12
2022-08-31T01:26:00.242Z,14.09
2022-08-31T01:31:08.586Z,14.13
2022-08-31T01:36:16.578Z,14.02
2022-08-31T01:41:22.991Z,13.97
2022-08-31T01:46:30.743Z,13.78
2022-08-31T01:51:38.116Z,13.75
2022-08-31T01:56:48.702Z,13.65
2022-08-31T02:02:01.469Z,13.66
2022-08-31T02:07:07.269Z,13.82
2022-08-31T02:12:13.718Z,13.71
2022-08-31T02:17:19.054Z,13.72
2022-08-31T02:22:23.887Z,13.61
2022-08-31T02:27:33.483Z,13.75
2022-08-31T02:32:38.075Z,13.74
2022-08-31T02:37:42.888Z,13.63
2022-08-31T02:42:53.013Z,13.70
2022-08-31T02:48:02.473Z,13.63
2022-08-31T02:53:14.435Z,13.73
2022-08-31T02:58:23.973Z,13.96
2022-08-31T03:03:28.554Z,14.08
2022-08-31T03:08:33.054Z,14.10
2022-08-31T03:13:41.354Z,14.11
2022-08-31T03:18:47.095Z,14.18
2022-08-31T03:23:51.191Z,14.19
2022-08-31T03:29:06.370Z,14.16
2022-08-31T03:34:29.746Z,14.18
2022-08-31T03:39:34.253Z,14.28
2022-08-31T03:44:40.523Z,14.17
2022-08-31T03:49:50.821Z,14.18
2022-08-31T03:55:13.134Z,14.11
2022-08-31T04:00:20.641Z,14.27
2022-08-31T04:05:34.842Z,14.20
2022-08-31T04:10:54.571Z,14.28
2022-08-31T04:16:15.453Z,14.48
2022-08-31T04:21:44.135Z,14.57
2022-08-31T04:26:53.991Z,14.62
2022-08-31T04:32:00.635Z,14.80
2022-08-31T04:37:05.513Z,14.89
2022-08-31T04:42:12.461Z,14.96
2022-08-31T04:47:19.201Z,15.13
2022-08-31T04:52:28.332Z,15.16
2022-08-31T04:57:36.637Z,15.15
2022-08-31T05:02:47.776Z,15.51
2022-08-31T05:07:59.412Z,15.71
2022-08-31T05:13:03.878Z,15.82
2022-08-31T05:18:16.470Z,15.85
2022-08-31T05:23:28.323Z,16.16
2022-08-31T05:28:33.786Z,16.10
2022-08-31T05:33:40.448Z,16.41
2022-08-31T05:38:44.959Z,16.36
2022-08-31T05:43:50.731Z,16.37
2022-08-31T05:48:57.167Z,16.74
2022-08-31T05:54:03.361Z,16.98
2022-08-31T05:59:10.939Z,16.78
2022-08-31T06:04:16.933Z,17.02
2022-08-31T06:09:23.064Z,17.03
2022-08-31T06:14:27.698Z,17.41
2022-08-31T06:19:35.027Z,17.66
2022-08-31T06:24:40.173Z,17.54
2022-08-31T06:29:44.399Z,17.75
2022-08-31T06:34:50.483Z,17.63
2022-08-31T06:40:16.752Z,18.04
2022-08-31T06:45:42.335Z,18.43
2022-08-31T06:51:10.632Z,18.67
2022-08-31T06:56:21.031Z,18.69
2022-08-31T07:01:44.685Z,18.67
2022-08-31T07:06:58.519Z,18.10
2022-08-31T07:12:04.443Z,18.44
2022-08-31T07:17:09.959Z,19.07
2022-08-31T07:22:16.833Z,19.27
2022-08-31T07:27:24.323Z,19.10
2022-08-31T07:32:35.988Z,19.23
2022-08-31T07:38:10.987Z,19.64
2022-08-31T07:43:16.296Z,20.12
2022-08-31T07:48:24.147Z,20.92
2022-08-31T07:53:43.318Z,21.34
2022-08-31T07:59:17.809Z,20.75
2022-08-31T08:04:26.247Z,20.03
2022-08-31T08:10:14.642Z,20.66
2022-08-31T08:15:30.244Z,21.27
2022-08-31T08:20:57.309Z,22.03
2022-08-31T08:26:21.269Z,22.27
2022-08-31T08:31:39.437Z,21.90
2022-08-31T08:36:44.477Z,21.77
2022-08-31T08:41:57.610Z,22.41
2022-08-31T08:47:05.636Z,24.31
2022-08-31T08:52:25.146Z,23.64
2022-08-31T08:57:33.653Z,23.52
2022-08-31T09:02:45.055Z,22.99
2022-08-31T09:08:10.752Z,23.05
2022-08-31T09:13:32.456Z,23.40
2022-08-31T09:18:49.329Z,23.14
2022-08-31T09:24:01.794Z,22.89
2022-08-31T09:29:23.498Z,24.28
2022-08-31T09:34:31.489Z,24.24
2022-08-31T09:39:37.669Z,23.69
2022-08-31T09:44:45.294Z,23.45
2022-08-31T09:49:58.154Z,23.08
2022-08-31T09:55:22.580Z,23.86
2022-08-31T10:00:34.724Z,24.83
2022-08-31T10:05:43.949Z,24.45
2022-08-31T10:10:52.113Z,24.57
2022-08-31T10:16:02.352Z,24.84
2022-08-31T10:21:10.795Z,24.30
2022-08-31T10:26:20.450Z,23.73
2022-08-31T10:31:32.015Z,23.76
2022-08-31T10:36:41.745Z,23.82
2022-08-31T10:41:50.284Z,23.40
2022-08-31T10:47:03.029Z,23.68
2022-08-31T10:52:18.674Z,24.19
2022-08-31T10:57:43.256Z,24.09
2022-08-31T11:03:01.909Z,24.00
2022-08-31T11:08:29.180Z,23.99
2022-08-31T11:14:00.581Z,24.30
2022-08-31T11:19:38.533Z,23.68
2022-08-31T11:25:08.065Z,23.96
2022-08-31T11:30:19.165Z,24.50
2022-08-31T11:36:07.507Z,25.15
2022-08-31T11:41:12.618Z,24.68
2022-08-31T11:46:43.391Z,25.38
2022-08-31T11:51:56.008Z,24.67
2022-08-31T11:57:00.054Z,24.50
2022-08-31T12:02:45.135Z,24.98
2022-08-31T12:07:52.893Z,25.49
2022-08-31T12:13:20.081Z,24.61
2022-08-31T12:18:54.530Z,24.94
2022-08-31T12:24:17.663Z,25.01
2022-08-31T12:29:28.765Z,24.88
2022-08-31T12:34:35.675Z,24.57
2022-08-31T12:39:42.101Z,24.24
2022-08-31T12:44:52.979Z,24.41
2022-08-31T12:50:11.946Z,24.63
2022-08-31T12:55:30.155Z,24.39
2022-08-31T13:00:37.619Z,24.08
2022-08-31T13:05:41.768Z,23.95
2022-08-31T13:10:49.849Z,23.81
2022-08-31T13:16:00.808Z,23.61
2022-08-31T13:21:06.897Z,23.44
2022-08-31T13:26:21.089Z,23.05
2022-08-31T13:31:29.252Z,22.91
2022-08-31T13:36:38.292Z,22.81
2022-08-31T13:41:56.508Z,22.97
2022-08-31T13:47:06.114Z,22.97
2022-08-31T13:52:19.415Z,22.71
2022-08-31T13:57:34.807Z,22.76
2022-08-31T14:02:40.320Z,22.58
2022-08-31T14:08:02.445Z,22.78
2022-08-31T14:13:20.430Z,22.72
2022-08-31T14:18:29.054Z,23.15
2022-08-31T14:23:37.361Z,23.19
2022-08-31T14:28:45.932Z,23.33
2022-08-31T14:33:56.335Z,22.86
2022-08-31T14:39:01.374Z,22.77
2022-08-31T14:44:10.065Z,23.26
2022-08-31T14:49:14.573Z,23.46
2022-08-31T14:54:19.110Z,23.32
2022-08-31T14:59:25.676Z,23.36
2022-08-31T15:04:33.434Z,23.17
2022-08-31T15:09:41.898Z,22.95
2022-08-31T15:14:51.113Z,22.57
2022-08-31T15:19:56.303Z,21.70
2022-08-31T15:25:01.034Z,21.47
2022-08-31T15:30:10.085Z,21.13
2022-08-31T15:35:18.182Z,20.73
2022-08-31T15:40:22.871Z,20.49
2022-08-31T15:45:31.180Z,20.51
2022-08-31T15:50:36.531Z,20.37
2022-08-31T15:55:41.786Z,20.30
2022-08-31T16:00:51.704Z,20.04
2022-08-31T16:05:56.768Z,20.15
2022-08-31T16:11:01.401Z,20.12
2022-08-31T16:16:07.418Z,19.80
2022-08-31T16:21:12.452Z,19.87
2022-08-31T16:26:21.549Z,19.91
2022-08-31T16:31:30.152Z,19.94
2022-08-31T16:36:34.878Z,19.65
2022-08-31T16:41:39.236Z,19.44
2022-08-31T16:46:45.984Z,19.34
2022-08-31T16:51:50.803Z,19.20
2022-08-31T16:56:57.979Z,19.12
2022-08-31T17:02:04.944Z,19.04
2022-08-31T17:07:10.981Z,18.94
2022-08-31T17:12:19.561Z,18.48
2022-08-31T17:17:27.699Z,18.39
2022-08-31T17:22:33.761Z,18.27
2022-08-31T17:27:38.332Z,18.16
2022-08-31T17:32:45.021Z,18.15
2022-08-31T17:37:51.043Z,17.97
2022-08-31T17:43:00.057Z,17.76
2022-08-31T17:48:06.852Z,17.68
2022-08-31T17:53:11.445Z,17.77
2022-08-31T17:58:16.059Z,17.56
2022-08-31T18:03:22.731Z,17.46
2022-08-31T18:08:27.394Z,17.25
2022-08-31T18:13:31.934Z,17.14
2022-08-31T18:18:39.667Z,16.91
2022-08-31T18:23:45.859Z,16.82
2022-08-31T18:28:52.958Z,16.83
2022-08-31T18:34:01.158Z,16.62
2022-08-31T18:39:07.541Z,16.67
2022-08-31T18:44:31.180Z,16.55
2022-08-31T18:49:39.689Z,16.43
2022-08-31T18:54:45.694Z,16.40
2022-08-31T18:59:51.194Z,16.32
2022-08-31T19:04:57.868Z,16.26
2022-08-31T19:10:03.337Z,16.13
2022-08-31T19:15:10.398Z,15.97
2022-08-31T19:20:18.254Z,15.87
2022-08-31T19:25:23.168Z,15.90
2022-08-31T19:30:28.478Z,15.77
2022-08-31T19:35:35.392Z,15.64
2022-08-31T19:40:40.999Z,15.66
2022-08-31T19:45:45.858Z,15.58
2022-08-31T19:50:53.797Z,15.48
2022-08-31T19:55:58.393Z,15.41
2022-08-31T20:01:07.983Z,15.30
2022-08-31T20:06:16.065Z,15.27
2022-08-31T20:11:23.561Z,15.15
2022-08-31T20:16:33.381Z,15.09
2022-08-31T20:21:42.834Z,15.00
2022-08-31T20:26:51.974Z,14.92
2022-08-31T20:31:56.788Z,14.83
2022-08-31T20:37:04.404Z,14.72
2022-08-31T20:42:09.353Z,14.61
2022-08-31T20:47:43.175Z,14.57
2022-08-31T20:52:49.483Z,14.60
2022-08-31T20:57:55.419Z,14.65
2022-08-31T21:03:00.598Z,14.44
2022-08-31T21:08:06.757Z,14.54
2022-08-31T21:13:14.512Z,14.44
2022-08-31T21:18:19.343Z,14.37
2022-08-31T21:23:25.421Z,14.53
2022-08-31T21:28:30.481Z,14.48
2022-08-31T21:33:35.719Z,14.48
2022-08-31T21:38:42.039Z,14.64
2022-08-31T21:43:46.479Z,14.67
2022-08-31T21:48:54.160Z,14.72
2022-08-31T21:54:05.796Z,14.67
2022-08-31T21:59:10.563Z,14.82
2022-08-31T22:04:20.363Z,14.65
2022-08-31T22:09:26.146Z,14.53
2022-08-31T22:14:33.168Z,14.40
2022-08-31T22:19:40.868Z,14.41
2022-08-31T22:24:47.190Z,14.39
2022-08-31T22:29:51.507Z,14.41
2022-08-31T22:34:56.135Z,14.31
2022-08-31T22:40:03.114Z,14.19
2022-08-31T22:45:10.128Z,14.23
2022-08-31T22:50:15.743Z,14.22
2022-08-31T22:55:21.924Z,14.09
2022-08-31T23:00:26.512Z,13.98
2022-08-31T23:05:31.903Z,14.14
2022-08-31T23:10:37.708Z,14.00
2022-08-31T23:15:43.694Z,13.95
2022-08-31T23:20:50.141Z,14.00
2022-08-31T23:25:57.214Z,13.90
2022-08-31T23:31:02.523Z,13.85
2022-08-31T23:36:08.569Z,13.73
2022-08-31T23:41:14.487Z,13.79
2022-08-31T23:46:19.665Z,13.82
2022-08-31T23:51:24.065Z,13.84
2022-08-31T23:56:32.805Z,13.87
